Terminal Aerodrome Forecast
Issued by NWS

Home | Current Version | Previous Version | Text Only | Print | Product List | Glossary Off
Versions: 1 2 3 4 5 6 7 8 9 10 11 12 13 14 15

000
FTUS43 KBIS 151700 RRA
TAFMOT
TAF
KMOT 151741Z 1518/1618 12016G22KT P6SM BKN070
     FM152200 11016G22KT P6SM VCSH OVC030
     FM160100 10015KT 3SM -SN BKN025
     FM160700 07012KT 5SM BR VCSH OVC015
     FM161000 06010KT 4SM BR OVC007=

USA.gov is the U.S. government's official web portal to all federal, state and local government web resources and services.